Strona główna
METAR-TAF:

METAR-TAF

Lotnisko :

Port lotniczy Mediolan-Linate

Mediolan, Włochy

Szerokość geograficzna: 45-26N, Długość geograficzna: 009-17E, wysokość: 107 m

Aktualna obserwacja pogody

Raport powstał 37 minut temu, godzina 03:50 UTC
Wiatr 3 kt od północ
Temperatura 0°C
Wilgotność 86%
Ciśnienie 1020 hPa
Widzialność 10 km lub więcej
Brak chmur poniżej 1500 m i brak chmur cumulonimbus

METAR: LIML 110350Z 36003KT CAVOK 00/M02 Q1020 NOSIG

czas: 05:27 (04:27 UTC)

Prognoza

Raport powstał 5 godziny i 27 minut temu, godzina 23:00 UTC
Prognoza ważna od 11 godzina 00 UTC do 11 godzina 24 UTC
Wiatr 5 kt z kierunków zmiennych
Widzialność 10 km lub więcej
Brak chmur poniżej 1500 m i brak chmur cumulonimbus
Przejściowo
od 11 godzina 21 UTC do 11 godzina 24 UTC
Widzialność: 4000 m
deszcz

TAF: LIML 102300Z 1100/1124 VRB05KT CAVOK TEMPO 1121/1124 4000 RA

Obserwacja i prognoza pogody dla ponad 4000 lotnisk (raport METAR i TAF).

Dostępne stacje oznaczono żółtymi i czerwonymi punktami na mapie.

Najedź kursorem aby zobaczyć nazwę stacji.

Kliknij aby zobaczyć obserwacje i prognozy pogody.

Aby zmienić mapę: kliknij na zielony przycisk z czarnym krzyżykiem, aby powiększyć; na zielony przycisk z myślnikiem, aby pomniejszyć; na zielone strzałki, aby przejść do map sąsiednich.


METAR-TAF: